Flight Track Log - Related Links

Times and Time Zones

All times are in EDT time to prevent confusion due to time zone crossing. See the CSJ405 flight status page for this flight to view local times or setup timezone preferences in your user account.

Time Position Orientation Groundspeed Altitude Reporting Facility
EDT Latitude Longitude Course Direction KTS MPH feet Rate Location/Type
Mon 09:52:27 PM 43.1117 -77.6825 284° West 68 78 1,100  Level Cleveland Center
Mon 09:53:52 PM 43.1214 -77.7358 284° West 112 129 2,600 1,159 Climbing Cleveland Center
Mon 09:54:52 PM 43.1244 -77.7786 276° West 100 115 3,900 457 Climbing Cleveland Center
Mon 09:56:56 PM 43.1333 -77.8833 277° West 164 189 4,000 23 Climbing Buffalo TRACON
Mon 09:59:10 PM 43.1167 -77.9833 257° West 150 173 4,000  Level Toronto Center
Mon 10:00:10 PM 43.1167 -78.0500 270° West 160 184 4,000  Level Toronto Center
Mon 10:01:10 PM 43.1333 -78.1000 295° West 150 173 4,000  Level Toronto Center
Mon 10:02:10 PM 43.1167 -78.1667 251° West 160 184 4,000 -50 Level Toronto Center
Mon 10:03:10 PM 43.1167 -78.2167 270° West 160 184 3,900  Descending Toronto Center
Mon 10:04:10 PM 43.1167 -78.2833 270° West 160 184 4,000 50 Climbing Toronto Center
Mon 10:05:10 PM 43.1167 -78.3500 270° West 160 184 4,000  Level Toronto Center
Mon 10:06:10 PM 43.1167 -78.4000 270° West 160 184 4,000  Level Toronto Center
Mon 10:07:10 PM 43.1333 -78.4667 289° West 160 184 4,000  Level Toronto Center
Mon 10:08:10 PM 43.1500 -78.5333 289° West 160 184 4,000  Level Toronto Center
Mon 10:09:10 PM 43.1500 -78.5833 270° West 160 184 4,000  Level Toronto Center
Mon 10:10:10 PM 43.1500 -78.6500 270° West 160 184 4,000  Level Toronto Center
Mon 10:11:10 PM 43.1500 -78.7167 270° West 160 184 4,000  Level Toronto Center
Mon 10:12:10 PM 43.1500 -78.7667 270° West 160 184 4,000  Level Toronto Center
Mon 10:13:10 PM 43.1500 -78.8333 270° West 160 184 4,000  Level Toronto Center
Mon 10:14:10 PM 43.1500 -78.9000 270° West 160 184 4,000  Level Toronto Center
Mon 10:15:10 PM 43.1500 -78.9500 270° West 160 184 4,000  Level Toronto Center
Mon 10:16:10 PM 43.1500 -79.0167 270° West 160 184 4,000  Level Toronto Center
Mon 10:17:10 PM 43.1500 -79.0667 270° West 160 184 4,000  Level Toronto Center
Mon 10:18:10 PM 43.1500 -79.1333 270° West 160 184 4,000  Level Toronto Center
Mon 10:19:10 PM 43.1500 -79.2000 270° West 160 184 4,000  Level Toronto Center
Mon 10:20:10 PM 43.1500 -79.2500 270° West 160 184 4,000  Level Toronto Center
Mon 10:21:10 PM 43.1500 -79.3167 270° West 160 184 4,000  Level Toronto Center
Mon 10:22:10 PM 43.1500 -79.3833 270° West 160 184 4,000  Level Toronto Center
Mon 10:23:10 PM 43.1667 -79.4333 295° West 160 184 4,000  Level Toronto Center
Mon 10:24:10 PM 43.1667 -79.5000 270° West 160 184 4,000  Level Toronto Center
Mon 10:25:10 PM 43.1667 -79.5500 270° West 160 184 4,000  Level Toronto Center
Mon 10:26:10 PM 43.1833 -79.6167 289° West 170 196 4,000  Level Toronto Center
Mon 10:27:10 PM 43.2000 -79.6833 289° West 160 184 4,000  Level Toronto Center
Mon 10:28:10 PM 43.2167 -79.7167 304° West 170 196 4,000 -100 Level Toronto Center
Mon 10:29:10 PM 43.2333 -79.8000 285° West 160 184 3,800 -500 Descending Toronto Center
Mon 10:30:10 PM 43.2500 -79.8333 304° West 170 196 3,000 -350 Descending Toronto Center
Mon 10:31:10 PM 43.2667 -79.9000 289° West 170 196 3,100  Climbing Toronto Center
Mon 10:32:10 PM 43.2833 -79.9833 285° West 170 196 3,000 -50 Descending Toronto Center
Mon 10:33:10 PM 43.3167 -80.0167 324° Northwest 170 196 3,000  Level Toronto Center
Mon 10:34:10 PM 43.3000 -80.0667 245° Southwest 150 173 3,000  Level Toronto Center
Mon 10:35:10 PM 43.2500 -80.0833 194° South 140 161 3,000 50 Level Toronto Center
Mon 10:36:10 PM 43.2167 -80.0833 180° South 130 150 3,100  Climbing Toronto Center
Mon 10:37:10 PM 43.2000 -80.0667 144° Southeast 120 138 3,000 -300 Descending Toronto Center
Mon 10:38:10 PM 43.2000 -80.0167 90° East 120 138 2,500 -600 Descending Toronto Center
Mon 10:39:10 PM 43.1833 -79.9833 124° Southeast 110 127 1,800 -650 Descending Toronto Center
Mon 10:40:10 PM 43.1667 -79.9500 124° Southeast 110 127 1,200 -450 Descending Toronto Center
Mon 10:41:10 PM 43.1667 -79.9000 90° East 100 115 900 -300 Descending Toronto Center

Login

Don't have an account? Register now (free) for customized features, flight alerts, and more!